createdAt,value
2019-02-28T00:01:46.287Z,2.49
2019-02-28T00:04:16.094Z,2.39
2019-02-28T00:06:47.016Z,2.32
2019-02-28T00:09:18.623Z,2.26
2019-02-28T00:11:59.325Z,2.29
2019-02-28T00:14:30.362Z,2.24
2019-02-28T00:17:02.773Z,2.26
2019-02-28T00:19:34.198Z,2.25
2019-02-28T00:22:05.116Z,2.21
2019-02-28T00:24:36.483Z,2.26
2019-02-28T00:27:07.147Z,2.18
2019-02-28T00:29:38.128Z,2.14
2019-02-28T00:32:09.945Z,2.13
2019-02-28T00:34:41.581Z,2.07
2019-02-28T00:37:16.649Z,2.02
2019-02-28T00:39:50.213Z,2.00
2019-02-28T00:42:21.254Z,1.97
2019-02-28T00:44:51.906Z,1.88
2019-02-28T00:47:23.606Z,1.72
2019-02-28T00:49:55.596Z,1.64
2019-02-28T00:52:28.156Z,1.57
2019-02-28T00:55:00.830Z,1.60
2019-02-28T00:57:31.888Z,1.65
2019-02-28T01:00:05.490Z,1.69
2019-02-28T01:02:53.523Z,1.66
2019-02-28T01:05:23.724Z,1.65
2019-02-28T01:07:55.221Z,1.59
2019-02-28T01:10:26.365Z,1.53
2019-02-28T01:12:57.808Z,1.56
2019-02-28T01:15:29.262Z,1.60
2019-02-28T01:18:01.572Z,1.75
2019-02-28T01:20:33.264Z,1.71
2019-02-28T01:23:04.263Z,1.55
2019-02-28T01:25:37.188Z,1.50
2019-02-28T01:28:13.025Z,1.46
2019-02-28T01:30:44.415Z,1.43
2019-02-28T01:33:15.904Z,1.35
2019-02-28T01:35:47.303Z,1.31
2019-02-28T01:38:18.988Z,1.34
2019-02-28T01:40:58.754Z,1.33
2019-02-28T01:43:29.777Z,1.41
2019-02-28T01:46:01.515Z,1.50
2019-02-28T01:48:32.843Z,1.44
2019-02-28T01:51:04.115Z,1.47
2019-02-28T01:53:36.515Z,1.53
2019-02-28T01:56:07.864Z,1.43
2019-02-28T01:58:38.941Z,1.54
2019-02-28T02:01:09.900Z,1.51
2019-02-28T03:01:56.122Z,0.93
2019-02-28T03:04:26.443Z,1.06
2019-02-28T03:07:02.092Z,1.22
2019-02-28T03:09:33.815Z,1.19
2019-02-28T03:12:06.083Z,1.13
2019-02-28T03:14:37.385Z,1.09
2019-02-28T03:17:11.558Z,0.94
2019-02-28T03:19:42.371Z,0.80
2019-02-28T03:22:14.112Z,0.75
2019-02-28T03:24:50.684Z,0.70
2019-02-28T03:27:20.004Z,0.69
2019-02-28T03:29:52.053Z,0.66
2019-02-28T03:32:23.320Z,0.63
2019-02-28T03:34:58.947Z,0.57
2019-02-28T03:37:32.852Z,0.50
2019-02-28T03:40:04.485Z,0.47
2019-02-28T03:42:34.873Z,0.43
2019-02-28T03:45:06.088Z,0.42
2019-02-28T03:47:37.739Z,0.40
2019-02-28T03:50:08.540Z,0.30
2019-02-28T03:52:43.838Z,0.32
2019-02-28T03:55:12.961Z,0.33
2019-02-28T03:57:44.201Z,0.47
2019-02-28T04:00:17.435Z,0.61
2019-02-28T04:02:58.806Z,0.58
2019-02-28T04:05:45.671Z,0.67
2019-02-28T04:08:17.935Z,0.63
2019-02-28T04:11:23.220Z,0.58
2019-02-28T04:13:56.065Z,0.56
2019-02-28T04:16:27.592Z,0.52
2019-02-28T04:18:58.557Z,0.47
2019-02-28T04:21:35.069Z,0.40
2019-02-28T04:24:12.689Z,0.45
2019-02-28T04:26:42.650Z,0.48
2019-02-28T04:29:13.992Z,0.48
2019-02-28T04:31:45.377Z,0.46
2019-02-28T04:34:17.109Z,0.44
2019-02-28T04:36:48.447Z,0.48
2019-02-28T04:39:22.819Z,0.52
2019-02-28T04:41:53.673Z,0.52
2019-02-28T04:44:35.947Z,0.45
2019-02-28T04:47:07.657Z,0.39
2019-02-28T04:49:38.379Z,0.29
2019-02-28T04:52:11.813Z,0.17
2019-02-28T04:54:42.569Z,0.28
2019-02-28T04:57:17.406Z,0.24
2019-02-28T04:59:49.024Z,0.17
2019-02-28T05:02:20.774Z,0.12
2019-02-28T05:04:52.303Z,0.11
2019-02-28T05:07:26.307Z,0.12
2019-02-28T05:09:56.717Z,0.13
2019-02-28T05:12:27.967Z,0.15
2019-02-28T05:15:02.167Z,0.05
2019-02-28T05:17:32.565Z,-0.11
2019-02-28T05:20:03.292Z,-0.18
2019-02-28T05:22:35.246Z,-0.21
2019-02-28T05:25:09.561Z,-0.17
2019-02-28T05:27:41.562Z,-0.10
2019-02-28T05:30:18.126Z,-0.07
2019-02-28T05:32:47.125Z,-0.02
2019-02-28T05:35:18.124Z,-0.10
2019-02-28T05:37:50.902Z,-0.11
2019-02-28T05:40:22.339Z,-0.14
2019-02-28T05:42:54.643Z,-0.14
2019-02-28T05:45:26.417Z,-0.04
2019-02-28T05:47:57.488Z,-0.01
2019-02-28T05:50:28.474Z,-0.03
2019-02-28T05:52:59.877Z,-0.04
2019-02-28T05:55:32.493Z,0.07
2019-02-28T05:58:03.624Z,0.17
2019-02-28T06:00:37.045Z,0.23
2019-02-28T06:03:08.207Z,0.18
2019-02-28T06:05:39.110Z,0.17
2019-02-28T06:08:10.721Z,0.07
2019-02-28T06:10:42.393Z,-0.02
2019-02-28T06:13:15.300Z,0.01
2019-02-28T06:15:47.352Z,0.05
2019-02-28T06:18:18.391Z,0.09
2019-02-28T06:20:51.429Z,0.28
2019-02-28T06:23:22.318Z,0.50
2019-02-28T06:25:55.770Z,0.70
2019-02-28T06:28:27.707Z,0.66
2019-02-28T06:31:00.883Z,0.58
2019-02-28T06:33:33.755Z,0.49
2019-02-28T06:36:05.420Z,0.42
2019-02-28T06:38:37.023Z,0.55
2019-02-28T06:41:08.737Z,0.86
2019-02-28T06:43:39.692Z,1.13
2019-02-28T06:46:11.436Z,1.27
2019-02-28T06:48:42.836Z,1.53
2019-02-28T06:51:16.730Z,2.12
2019-02-28T06:53:47.192Z,2.91
2019-02-28T06:56:21.929Z,3.84
2019-02-28T06:58:52.183Z,4.59
2019-02-28T07:01:23.894Z,5.56
2019-02-28T07:03:55.093Z,6.14
2019-02-28T07:06:26.683Z,6.52
2019-02-28T07:09:02.023Z,6.34
2019-02-28T07:11:32.827Z,6.27
2019-02-28T07:14:03.963Z,6.37
2019-02-28T07:16:37.637Z,7.74
2019-02-28T07:19:08.904Z,9.15
2019-02-28T07:21:43.926Z,9.86
2019-02-28T07:24:13.073Z,10.61
2019-02-28T07:26:44.566Z,10.23
2019-02-28T07:29:15.687Z,11.28
2019-02-28T07:31:46.743Z,12.00
2019-02-28T07:34:21.945Z,12.15
2019-02-28T07:36:51.578Z,12.68
2019-02-28T07:39:22.210Z,13.57
2019-02-28T07:41:53.258Z,14.43
2019-02-28T07:44:25.294Z,15.07
2019-02-28T07:46:56.824Z,15.60
2019-02-28T07:49:27.491Z,16.26
2019-02-28T07:51:58.850Z,15.93
2019-02-28T07:54:31.343Z,15.90
2019-02-28T07:57:03.282Z,15.29
2019-02-28T07:59:40.663Z,15.09
2019-02-28T08:02:07.748Z,15.02
2019-02-28T08:04:39.431Z,14.77
2019-02-28T08:07:11.403Z,14.88
2019-02-28T08:09:43.496Z,15.04
2019-02-28T08:12:14.568Z,14.30
2019-02-28T08:14:47.075Z,12.68
2019-02-28T08:17:18.375Z,12.14
2019-02-28T08:19:50.224Z,12.41
2019-02-28T08:22:24.220Z,11.83
2019-02-28T08:24:53.464Z,12.72
2019-02-28T08:27:25.447Z,12.35
2019-02-28T08:29:57.090Z,12.41
2019-02-28T08:32:28.089Z,12.88
2019-02-28T08:34:59.759Z,13.36
2019-02-28T08:37:31.216Z,13.01
2019-02-28T08:40:02.892Z,13.35
2019-02-28T08:42:38.690Z,13.32
2019-02-28T08:45:10.705Z,14.54
2019-02-28T08:47:41.434Z,15.13
2019-02-28T08:50:19.166Z,15.26
2019-02-28T08:52:52.238Z,14.73
2019-02-28T08:55:28.905Z,14.19
2019-02-28T08:58:03.935Z,13.82
2019-02-28T09:00:32.785Z,13.93
2019-02-28T09:03:02.592Z,15.29
2019-02-28T09:05:33.959Z,14.97
2019-02-28T09:08:05.003Z,14.80
2019-02-28T09:10:37.466Z,15.28
2019-02-28T09:13:09.030Z,14.98
2019-02-28T09:15:40.729Z,15.00
2019-02-28T09:18:12.426Z,14.88
2019-02-28T09:20:45.149Z,14.62
2019-02-28T09:23:16.265Z,14.86
2019-02-28T09:25:46.898Z,14.96
2019-02-28T09:28:20.874Z,15.33
2019-02-28T09:30:53.567Z,15.11
2019-02-28T09:33:24.571Z,15.23
2019-02-28T09:35:55.264Z,15.54
2019-02-28T09:38:26.313Z,15.73
2019-02-28T09:40:57.652Z,15.75
2019-02-28T09:43:29.327Z,15.64
2019-02-28T09:45:59.908Z,15.53
2019-02-28T09:48:33.944Z,15.23
2019-02-28T09:51:03.757Z,15.74
2019-02-28T09:53:34.720Z,15.98
2019-02-28T09:56:09.342Z,16.63
2019-02-28T09:58:39.484Z,16.12
2019-02-28T10:01:10.803Z,16.14
2019-02-28T10:03:41.488Z,16.08
2019-02-28T10:06:16.463Z,16.34
2019-02-28T10:08:48.015Z,16.26
2019-02-28T10:11:21.723Z,16.52
2019-02-28T10:13:53.095Z,17.08
2019-02-28T10:16:25.549Z,17.23
2019-02-28T10:18:56.161Z,16.77
2019-02-28T10:21:27.184Z,17.08
2019-02-28T10:23:59.000Z,17.11
2019-02-28T10:26:29.907Z,17.64
2019-02-28T10:29:01.286Z,17.53
2019-02-28T10:31:38.636Z,18.33
2019-02-28T10:34:10.220Z,18.38
2019-02-28T10:36:41.211Z,18.40
2019-02-28T10:39:12.660Z,18.26
2019-02-28T10:41:44.487Z,18.20
2019-02-28T10:44:16.155Z,18.52
2019-02-28T10:46:47.165Z,18.39
2019-02-28T10:49:21.129Z,18.28
2019-02-28T10:51:51.766Z,18.37
2019-02-28T10:54:22.859Z,18.43
2019-02-28T10:56:54.201Z,19.04
2019-02-28T10:59:25.903Z,19.09
2019-02-28T11:01:56.952Z,18.52
2019-02-28T11:04:30.179Z,18.38
2019-02-28T11:07:02.254Z,18.69
2019-02-28T11:09:34.786Z,18.72
2019-02-28T11:12:05.833Z,18.70
2019-02-28T11:14:38.805Z,18.92
2019-02-28T11:17:13.639Z,18.76
2019-02-28T11:19:43.144Z,19.38
2019-02-28T11:22:14.945Z,19.66
2019-02-28T11:24:48.197Z,19.51
2019-02-28T11:27:22.877Z,19.15
2019-02-28T11:29:52.206Z,19.03
2019-02-28T11:32:22.761Z,19.32
2019-02-28T11:34:54.836Z,19.83
2019-02-28T11:37:26.335Z,19.36
2019-02-28T11:39:57.687Z,19.51
2019-02-28T11:42:31.241Z,19.61
2019-02-28T11:45:03.286Z,19.78
2019-02-28T11:47:34.315Z,19.52
2019-02-28T11:50:07.665Z,19.54
2019-02-28T11:52:39.078Z,19.56
2019-02-28T11:55:11.326Z,19.18
2019-02-28T11:57:42.382Z,19.31
2019-02-28T12:00:22.367Z,19.95
2019-02-28T12:02:53.682Z,19.28
2019-02-28T12:05:25.857Z,19.46
2019-02-28T12:07:57.286Z,19.26
2019-02-28T12:10:28.416Z,19.76
2019-02-28T12:12:59.665Z,19.66
2019-02-28T12:15:31.057Z,19.74
2019-02-28T12:18:04.748Z,19.87
2019-02-28T12:20:36.094Z,20.02
2019-02-28T12:23:07.957Z,20.04
2019-02-28T12:25:39.492Z,20.01
2019-02-28T12:28:12.095Z,20.26
2019-02-28T12:30:43.626Z,20.08
2019-02-28T12:33:15.431Z,20.03
2019-02-28T12:35:47.442Z,20.23
2019-02-28T12:38:18.933Z,20.26
2019-02-28T12:40:50.716Z,20.78
2019-02-28T12:43:21.597Z,20.63
2019-02-28T12:45:53.619Z,20.15
2019-02-28T12:48:26.935Z,21.08
2019-02-28T12:50:58.071Z,20.84
2019-02-28T12:53:28.834Z,20.89
2019-02-28T12:56:00.131Z,20.62
2019-02-28T12:58:38.677Z,20.53
2019-02-28T13:01:04.254Z,20.69
2019-02-28T13:03:35.258Z,20.55
2019-02-28T13:06:07.220Z,20.31
2019-02-28T13:08:38.603Z,20.26
2019-02-28T13:11:11.550Z,20.44
2019-02-28T13:13:42.942Z,20.23
2019-02-28T13:16:17.434Z,20.53
2019-02-28T13:18:48.121Z,20.69
2019-02-28T13:21:31.112Z,20.05
2019-02-28T13:24:06.089Z,20.70
2019-02-28T13:26:35.121Z,20.61
2019-02-28T13:29:06.440Z,20.58
2019-02-28T13:31:37.958Z,20.58
2019-02-28T13:34:08.653Z,20.60
2019-02-28T13:36:39.695Z,20.54
2019-02-28T13:39:11.856Z,20.57
2019-02-28T13:41:43.289Z,20.33
2019-02-28T13:44:14.371Z,20.43
2019-02-28T13:46:45.702Z,20.44
2019-02-28T13:49:17.817Z,20.46
2019-02-28T13:51:49.819Z,20.92
2019-02-28T13:54:21.876Z,21.60
2019-02-28T13:56:53.291Z,21.15
2019-02-28T13:59:24.592Z,20.60
2019-02-28T14:01:55.611Z,20.94
2019-02-28T14:04:27.529Z,20.68
2019-02-28T14:06:59.029Z,20.86
2019-02-28T14:09:31.160Z,20.41
2019-02-28T14:12:01.958Z,20.75
2019-02-28T14:14:33.028Z,20.70
2019-02-28T14:17:04.036Z,20.52
2019-02-28T14:19:35.365Z,20.71
2019-02-28T14:22:08.576Z,20.65
2019-02-28T14:24:40.313Z,20.78
2019-02-28T14:27:11.977Z,20.66
2019-02-28T14:29:48.389Z,20.69
2019-02-28T14:32:42.474Z,20.73
2019-02-28T14:35:15.412Z,20.92
2019-02-28T14:37:47.050Z,21.09
2019-02-28T14:40:18.819Z,20.73
2019-02-28T14:42:50.143Z,20.47
2019-02-28T14:45:23.055Z,20.55
2019-02-28T14:47:57.266Z,20.51
2019-02-28T14:50:27.951Z,20.64
2019-02-28T14:52:58.739Z,20.17
2019-02-28T14:55:32.729Z,20.35
2019-02-28T14:58:03.754Z,20.13
2019-02-28T15:00:35.443Z,20.31
2019-02-28T15:03:06.441Z,19.88
2019-02-28T15:05:39.363Z,19.95
2019-02-28T15:08:15.153Z,20.05
2019-02-28T15:10:45.718Z,19.82
2019-02-28T15:13:17.823Z,19.79
2019-02-28T15:15:55.835Z,19.88
2019-02-28T15:18:27.169Z,19.96
2019-02-28T15:20:59.254Z,20.27
2019-02-28T15:23:34.142Z,20.17
2019-02-28T15:26:12.782Z,20.26
2019-02-28T15:28:48.589Z,20.36
2019-02-28T15:31:21.439Z,20.79
2019-02-28T15:34:07.282Z,20.35
2019-02-28T15:36:40.476Z,20.55
2019-02-28T15:39:12.551Z,20.56
2019-02-28T15:41:45.532Z,20.92
2019-02-28T15:44:16.544Z,21.19
2019-02-28T15:46:48.364Z,20.59
2019-02-28T15:49:19.923Z,20.60
2019-02-28T15:51:54.849Z,21.13
2019-02-28T15:54:26.926Z,20.93
2019-02-28T15:56:59.122Z,21.28
2019-02-28T15:59:31.638Z,20.34
2019-02-28T16:02:03.591Z,19.86
2019-02-28T16:04:37.041Z,19.71
2019-02-28T16:07:08.032Z,19.80
2019-02-28T16:09:43.354Z,19.60
2019-02-28T16:12:15.931Z,19.67
2019-02-28T16:14:49.716Z,19.42
2019-02-28T16:17:20.705Z,19.44
2019-02-28T16:19:53.196Z,19.28
2019-02-28T16:22:24.529Z,19.01
2019-02-28T16:24:56.644Z,18.89
2019-02-28T16:27:29.504Z,18.54
2019-02-28T16:30:11.643Z,18.29
2019-02-28T16:32:45.531Z,18.38
2019-02-28T16:35:17.037Z,17.91
2019-02-28T16:37:50.562Z,17.77
2019-02-28T16:40:27.342Z,17.51
2019-02-28T16:42:59.063Z,17.28
2019-02-28T16:45:48.479Z,17.01
2019-02-28T16:48:23.439Z,16.64
2019-02-28T16:50:56.788Z,16.52
2019-02-28T16:53:28.042Z,16.33
2019-02-28T16:55:59.458Z,16.24
2019-02-28T16:58:35.151Z,16.15
2019-02-28T17:01:28.503Z,15.94
2019-02-28T17:04:02.085Z,16.19
2019-02-28T17:06:35.618Z,16.02
2019-02-28T17:09:23.098Z,15.87
2019-02-28T17:12:10.649Z,15.70
2019-02-28T17:15:13.908Z,15.63
2019-02-28T17:17:56.642Z,15.46
2019-02-28T17:20:27.031Z,15.36
2019-02-28T17:22:58.588Z,15.28
2019-02-28T17:25:31.104Z,15.27
2019-02-28T17:28:29.972Z,15.12
2019-02-28T17:31:35.728Z,15.12
2019-02-28T17:34:07.751Z,15.01
2019-02-28T17:36:38.831Z,14.85
2019-02-28T17:39:14.805Z,14.91
2019-02-28T17:41:44.899Z,14.85
2019-02-28T17:44:57.124Z,14.86
2019-02-28T17:48:26.177Z,14.75
2019-02-28T17:51:33.691Z,14.65
2019-02-28T17:54:54.329Z,14.44
2019-02-28T17:58:19.349Z,14.25
2019-02-28T18:01:35.161Z,14.25
2019-02-28T18:05:18.661Z,14.31
2019-02-28T18:08:55.432Z,14.29
2019-02-28T18:12:01.334Z,14.09
2019-02-28T18:15:31.118Z,14.08
2019-02-28T18:19:18.270Z,14.04
2019-02-28T18:22:26.441Z,13.83
2019-02-28T18:25:32.624Z,13.73
2019-02-28T18:29:09.893Z,13.64
2019-02-28T18:31:42.014Z,13.49
2019-02-28T18:34:26.234Z,13.38
2019-02-28T18:36:58.103Z,13.39
2019-02-28T18:39:29.657Z,13.26
2019-02-28T18:42:00.778Z,13.10
2019-02-28T18:44:31.893Z,13.03
2019-02-28T18:47:04.396Z,12.92
2019-02-28T18:49:36.153Z,12.77
2019-02-28T18:52:07.043Z,12.66
2019-02-28T18:54:39.438Z,12.57
2019-02-28T18:57:12.154Z,12.61
2019-02-28T18:59:43.638Z,12.59
2019-02-28T19:02:14.676Z,12.50
2019-02-28T19:04:46.083Z,12.33
2019-02-28T19:07:18.402Z,12.24
2019-02-28T19:09:50.111Z,12.33
2019-02-28T19:12:21.977Z,12.34
2019-02-28T19:14:53.485Z,12.26
2019-02-28T19:17:24.610Z,12.33
2019-02-28T19:19:55.640Z,12.30
2019-02-28T19:22:27.015Z,12.28
2019-02-28T19:24:58.408Z,12.28
2019-02-28T19:27:29.815Z,12.21
2019-02-28T19:30:01.357Z,12.16
2019-02-28T19:32:33.857Z,12.21
2019-02-28T19:35:05.717Z,12.33
2019-02-28T19:37:37.772Z,12.40
2019-02-28T19:40:09.938Z,12.56
2019-02-28T19:42:41.703Z,12.47
2019-02-28T19:45:14.323Z,12.53
2019-02-28T19:47:47.419Z,12.61
2019-02-28T19:50:18.541Z,12.55
2019-02-28T19:52:49.273Z,12.41
2019-02-28T19:55:20.634Z,12.23
2019-02-28T19:57:52.023Z,12.04
2019-02-28T20:00:22.833Z,12.05
2019-02-28T20:02:54.515Z,12.04
2019-02-28T20:05:26.015Z,12.01
2019-02-28T20:07:57.106Z,11.87
2019-02-28T20:10:28.128Z,11.75
2019-02-28T20:12:58.835Z,11.97
2019-02-28T20:15:32.141Z,11.97
2019-02-28T20:18:03.932Z,11.81
2019-02-28T20:20:35.245Z,11.82
2019-02-28T20:23:06.880Z,11.71
2019-02-28T20:25:37.837Z,11.65
2019-02-28T20:28:08.776Z,11.46
2019-02-28T20:30:40.609Z,11.38
2019-02-28T20:33:11.935Z,11.31
2019-02-28T20:35:43.907Z,11.18
2019-02-28T20:39:01.450Z,11.12
2019-02-28T20:41:32.145Z,11.16
2019-02-28T20:44:03.791Z,11.03
2019-02-28T20:46:35.033Z,11.01
2019-02-28T20:49:06.784Z,11.09
2019-02-28T20:51:37.796Z,11.06
2019-02-28T20:54:09.844Z,10.97
2019-02-28T20:56:40.970Z,10.96
2019-02-28T20:59:13.156Z,10.90
2019-02-28T21:01:44.523Z,10.76
2019-02-28T21:04:16.242Z,10.76
2019-02-28T21:06:46.966Z,10.74
2019-02-28T21:09:20.451Z,10.69
2019-02-28T21:11:51.855Z,10.56
2019-02-28T21:14:23.808Z,10.59
2019-02-28T21:16:55.147Z,10.59
2019-02-28T21:19:26.209Z,10.68
2019-02-28T21:21:57.845Z,10.63
2019-02-28T21:24:29.196Z,10.55
2019-02-28T21:27:59.074Z,10.48
2019-02-28T21:30:30.369Z,10.61
2019-02-28T21:33:01.401Z,10.79
2019-02-28T21:35:32.852Z,10.86
2019-02-28T21:38:04.338Z,10.90
2019-02-28T21:40:35.680Z,10.95
2019-02-28T21:43:06.709Z,10.83
2019-02-28T21:45:37.773Z,10.96
2019-02-28T21:48:09.090Z,10.80
2019-02-28T21:50:47.502Z,10.78
2019-02-28T21:53:18.568Z,10.79
2019-02-28T21:55:49.618Z,10.67
2019-02-28T21:58:22.154Z,10.77
2019-02-28T22:00:53.114Z,10.67
2019-02-28T22:03:43.813Z,10.64
2019-02-28T22:06:16.300Z,10.66
2019-02-28T22:08:47.931Z,10.65
2019-02-28T22:11:19.432Z,10.65
2019-02-28T22:13:50.406Z,10.65
2019-02-28T22:16:21.467Z,10.61
2019-02-28T22:18:52.481Z,10.62
2019-02-28T22:21:23.911Z,10.55
2019-02-28T22:23:55.848Z,10.50
2019-02-28T22:26:31.744Z,10.58
2019-02-28T22:29:03.502Z,10.55
2019-02-28T22:31:52.631Z,10.54
2019-02-28T22:34:53.083Z,10.54
2019-02-28T22:37:25.567Z,10.56
2019-02-28T22:40:09.657Z,10.64
2019-02-28T22:42:42.233Z,10.50
2019-02-28T22:45:12.738Z,10.51
2019-02-28T22:47:44.111Z,10.61
2019-02-28T22:50:15.935Z,10.59
2019-02-28T22:52:47.319Z,10.64
2019-02-28T22:55:23.575Z,10.72
2019-02-28T22:57:54.694Z,10.77
2019-02-28T23:01:04.326Z,10.61
2019-02-28T23:03:48.953Z,10.69
2019-02-28T23:06:22.315Z,10.68
2019-02-28T23:08:53.650Z,10.52
2019-02-28T23:11:24.362Z,10.56
2019-02-28T23:13:56.045Z,10.47
2019-02-28T23:16:28.159Z,10.33
2019-02-28T23:19:01.200Z,10.20
2019-02-28T23:21:32.738Z,10.12
2019-02-28T23:24:04.332Z,10.04
2019-02-28T23:27:15.003Z,10.15
2019-02-28T23:29:55.472Z,10.12
2019-02-28T23:32:57.942Z,10.19
2019-02-28T23:35:37.097Z,10.26
2019-02-28T23:38:13.613Z,10.35
2019-02-28T23:40:50.711Z,10.34
2019-02-28T23:43:25.924Z,10.33
2019-02-28T23:46:01.259Z,10.42
2019-02-28T23:48:35.358Z,10.33
2019-02-28T23:51:06.847Z,10.31
2019-02-28T23:53:38.172Z,10.34
2019-02-28T23:56:10.003Z,10.38
2019-02-28T23:58:40.808Z,10.31
